Overview Statistics Trail Chart Weather Telemetry Raw packets
 

This is the latest recevied weather packets stored in our database for station/object KY0TEQ-13. If no packets are shown the sender has not sent any weather packets the latest 10 day(s).

<< 82 83 84 85 86 87 88 >>
Time Temp. Humidity Pressure Rain* Wind** Luminosity Snow
1788089119 13.89° C 66% 1310.4 hPa 0 mm - 0 W/m² -
1788088815 14.44° C 66% 1310 hPa 0 mm - 0 W/m² -
1788088510 14.44° C 67% 1310.4 hPa 0 mm - 0 W/m² -
1788088206 14.44° C 66% 1310.2 hPa 0 mm - 0 W/m² -
1788087915 15° C 65% 1310.1 hPa 0 mm - 0 W/m² -
1788087595 14.44° C 66% 1310.2 hPa 0 mm - 0 W/m² -
1788087291 14.44° C 67% 1310.5 hPa 0 mm - 0 W/m² -
1788086987 13.89° C 68% 1310.5 hPa 0 mm - 0 W/m² -
1788086684 13.89° C 67% 1310.6 hPa 0 mm - 0 W/m² -
1788086379 14.44° C 66% 1310.6 hPa 0 mm - 0 W/m² -
1788086074 13.89° C 68% 1310.4 hPa 0 mm - 0 W/m² -
1788085772 12.78° C 71% 1310.7 hPa 0 mm - 0 W/m² -
1788085468 12.78° C 71% 1310.6 hPa 0 mm - 0 W/m² -
1788085163 13.33° C 70% 1310.4 hPa 0 mm - 0 W/m² -
1788084858 12.78° C 72% 1310.4 hPa 0 mm - 0 W/m² -
1788084558 12.78° C 71% 1310.5 hPa 0 mm - 0 W/m² -
1788084257 12.78° C 71% 1310.5 hPa 0 mm - 0 W/m² -
1788083956 12.78° C 73% 1310.6 hPa 0 mm - 0 W/m² -
1788083652 12.78° C 72% 1310.7 hPa 0 mm - 0 W/m² -
1788083348 13.89° C 69% 1310.4 hPa 0 mm - 0 W/m² -
1788083044 13.89° C 69% 1310.2 hPa 0 mm - 0 W/m² -
1788082740 13.33° C 71% 1310 hPa 0 mm - 0 W/m² -
1788082434 12.78° C 73% 1310.4 hPa 0 mm - 0 W/m² -
1788082129 12.78° C 72% 1310.2 hPa 0 mm - 0 W/m² -
1788081826 12.78° C 72% 1310.4 hPa 0 mm - 0 W/m² -

* Rain latest hour (hover to see other rain measurements)
** Current wind speed in m/s (hover to see current wind gust speed)